sensor_id;sensor_type;location;lat;lon;timestamp;P1;durP1;ratioP1;P2;durP2;ratioP2
6251;SDS011;3159;52.414;9.784;2022-12-07T00:01:23;32.17;;;17.33;;
6251;SDS011;3159;52.414;9.784;2022-12-07T00:03:54;31.13;;;17.80;;
6251;SDS011;3159;52.414;9.784;2022-12-07T00:06:25;28.83;;;17.73;;
6251;SDS011;3159;52.414;9.784;2022-12-07T00:08:52;32.77;;;18.30;;
6251;SDS011;3159;52.414;9.784;2022-12-07T00:11:20;29.90;;;17.87;;
6251;SDS011;3159;52.414;9.784;2022-12-07T00:13:50;30.63;;;17.93;;
6251;SDS011;3159;52.414;9.784;2022-12-07T00:16:18;30.63;;;18.37;;
6251;SDS011;3159;52.414;9.784;2022-12-07T00:18:47;34.97;;;18.90;;
6251;SDS011;3159;52.414;9.784;2022-12-07T00:21:17;33.33;;;18.17;;
6251;SDS011;3159;52.414;9.784;2022-12-07T00:23:45;30.27;;;18.27;;
6251;SDS011;3159;52.414;9.784;2022-12-07T00:26:14;30.70;;;18.83;;
6251;SDS011;3159;52.414;9.784;2022-12-07T00:28:44;30.37;;;18.43;;
6251;SDS011;3159;52.414;9.784;2022-12-07T00:31:12;31.50;;;17.53;;
6251;SDS011;3159;52.414;9.784;2022-12-07T00:33:39;25.87;;;17.43;;
6251;SDS011;3159;52.414;9.784;2022-12-07T00:36:08;25.00;;;16.30;;
6251;SDS011;3159;52.414;9.784;2022-12-07T00:38:38;30.60;;;18.63;;
6251;SDS011;3159;52.414;9.784;2022-12-07T00:41:07;25.70;;;16.77;;
6251;SDS011;3159;52.414;9.784;2022-12-07T00:43:36;26.43;;;17.00;;
6251;SDS011;3159;52.414;9.784;2022-12-07T00:46:04;30.87;;;18.17;;
6251;SDS011;3159;52.414;9.784;2022-12-07T00:48:31;28.37;;;16.57;;
6251;SDS011;3159;52.414;9.784;2022-12-07T00:50:58;26.70;;;16.97;;
6251;SDS011;3159;52.414;9.784;2022-12-07T00:53:26;27.27;;;17.17;;
6251;SDS011;3159;52.414;9.784;2022-12-07T00:55:55;24.97;;;16.57;;
6251;SDS011;3159;52.414;9.784;2022-12-07T00:58:22;23.70;;;16.23;;
6251;SDS011;3159;52.414;9.784;2022-12-07T01:00:49;25.67;;;16.87;;
6251;SDS011;3159;52.414;9.784;2022-12-07T01:03:16;25.50;;;16.83;;
6251;SDS011;3159;52.414;9.784;2022-12-07T01:05:50;25.73;;;16.97;;
6251;SDS011;3159;52.414;9.784;2022-12-07T01:08:18;27.50;;;16.47;;
6251;SDS011;3159;52.414;9.784;2022-12-07T01:10:45;26.60;;;17.40;;
6251;SDS011;3159;52.414;9.784;2022-12-07T01:13:13;24.67;;;16.20;;
6251;SDS011;3159;52.414;9.784;2022-12-07T01:15:41;23.10;;;17.67;;
6251;SDS011;3159;52.414;9.784;2022-12-07T01:18:08;24.83;;;17.80;;
6251;SDS011;3159;52.414;9.784;2022-12-07T01:20:36;24.30;;;17.23;;
6251;SDS011;3159;52.414;9.784;2022-12-07T01:23:03;25.43;;;16.93;;
6251;SDS011;3159;52.414;9.784;2022-12-07T01:25:30;27.10;;;17.93;;
6251;SDS011;3159;52.414;9.784;2022-12-07T01:27:57;28.27;;;17.53;;
6251;SDS011;3159;52.414;9.784;2022-12-07T01:30:25;25.43;;;17.23;;
6251;SDS011;3159;52.414;9.784;2022-12-07T01:32:52;27.10;;;17.50;;
6251;SDS011;3159;52.414;9.784;2022-12-07T01:35:19;27.37;;;18.10;;
6251;SDS011;3159;52.414;9.784;2022-12-07T01:37:46;30.00;;;17.33;;
6251;SDS011;3159;52.414;9.784;2022-12-07T01:40:13;29.70;;;17.93;;
6251;SDS011;3159;52.414;9.784;2022-12-07T01:42:39;25.47;;;17.30;;
6251;SDS011;3159;52.414;9.784;2022-12-07T01:45:31;30.60;;;18.17;;
6251;SDS011;3159;52.414;9.784;2022-12-07T01:48:04;29.23;;;18.70;;
6251;SDS011;3159;52.414;9.784;2022-12-07T01:50:33;28.30;;;19.37;;
6251;SDS011;3159;52.414;9.784;2022-12-07T01:53:01;28.57;;;18.67;;
6251;SDS011;3159;52.414;9.784;2022-12-07T01:55:31;26.90;;;19.07;;
6251;SDS011;3159;52.414;9.784;2022-12-07T01:57:59;31.37;;;19.07;;
6251;SDS011;3159;52.414;9.784;2022-12-07T02:00:26;25.37;;;17.13;;
6251;SDS011;3159;52.414;9.784;2022-12-07T02:02:55;29.13;;;17.33;;
6251;SDS011;3159;52.414;9.784;2022-12-07T02:05:26;23.73;;;17.40;;
6251;SDS011;3159;52.414;9.784;2022-12-07T02:07:54;23.93;;;16.37;;
6251;SDS011;3159;52.414;9.784;2022-12-07T02:10:23;26.07;;;15.93;;
6251;SDS011;3159;52.414;9.784;2022-12-07T02:12:52;20.73;;;15.20;;
6251;SDS011;3159;52.414;9.784;2022-12-07T02:15:22;22.30;;;16.33;;
6251;SDS011;3159;52.414;9.784;2022-12-07T02:17:56;20.40;;;15.07;;
6251;SDS011;3159;52.414;9.784;2022-12-07T02:20:31;23.43;;;15.47;;
6251;SDS011;3159;52.414;9.784;2022-12-07T02:23:16;20.93;;;14.87;;
6251;SDS011;3159;52.414;9.784;2022-12-07T02:29:23;19.47;;;14.37;;
6251;SDS011;3159;52.414;9.784;2022-12-07T02:31:55;21.57;;;14.63;;
6251;SDS011;3159;52.414;9.784;2022-12-07T02:34:31;19.93;;;14.67;;
6251;SDS011;3159;52.414;9.784;2022-12-07T02:37:03;19.73;;;14.33;;
6251;SDS011;3159;52.414;9.784;2022-12-07T02:39:37;24.40;;;15.77;;
6251;SDS011;3159;52.414;9.784;2022-12-07T02:42:12;21.17;;;14.43;;
6251;SDS011;3159;52.414;9.784;2022-12-07T02:44:43;21.33;;;14.47;;
6251;SDS011;3159;52.414;9.784;2022-12-07T02:47:13;23.33;;;14.13;;
6251;SDS011;3159;52.414;9.784;2022-12-07T02:49:42;22.73;;;14.67;;
6251;SDS011;3159;52.414;9.784;2022-12-07T02:52:09;21.30;;;14.37;;
6251;SDS011;3159;52.414;9.784;2022-12-07T02:54:36;19.90;;;13.63;;
6251;SDS011;3159;52.414;9.784;2022-12-07T02:57:06;18.87;;;13.20;;
6251;SDS011;3159;52.414;9.784;2022-12-07T02:59:50;22.00;;;12.63;;
6251;SDS011;3159;52.414;9.784;2022-12-07T03:02:28;19.83;;;12.73;;
6251;SDS011;3159;52.414;9.784;2022-12-07T03:05:05;18.70;;;11.90;;
6251;SDS011;3159;52.414;9.784;2022-12-07T03:07:48;19.13;;;11.50;;
6251;SDS011;3159;52.414;9.784;2022-12-07T03:10:24;18.07;;;11.50;;
6251;SDS011;3159;52.414;9.784;2022-12-07T03:13:02;18.10;;;12.43;;
6251;SDS011;3159;52.414;9.784;2022-12-07T03:15:38;19.00;;;11.97;;
6251;SDS011;3159;52.414;9.784;2022-12-07T03:18:09;18.63;;;12.13;;
6251;SDS011;3159;52.414;9.784;2022-12-07T03:20:39;17.70;;;12.57;;
6251;SDS011;3159;52.414;9.784;2022-12-07T03:23:08;18.93;;;12.57;;
6251;SDS011;3159;52.414;9.784;2022-12-07T03:25:39;18.67;;;12.83;;
6251;SDS011;3159;52.414;9.784;2022-12-07T03:28:11;17.97;;;12.07;;
6251;SDS011;3159;52.414;9.784;2022-12-07T03:30:44;14.47;;;11.30;;
6251;SDS011;3159;52.414;9.784;2022-12-07T03:33:16;19.00;;;11.53;;
6251;SDS011;3159;52.414;9.784;2022-12-07T03:35:49;17.63;;;10.57;;
6251;SDS011;3159;52.414;9.784;2022-12-07T03:38:23;16.93;;;10.83;;
6251;SDS011;3159;52.414;9.784;2022-12-07T03:40:57;17.10;;;9.87;;
6251;SDS011;3159;52.414;9.784;2022-12-07T03:43:27;16.57;;;10.27;;
6251;SDS011;3159;52.414;9.784;2022-12-07T03:45:58;14.50;;;9.60;;
6251;SDS011;3159;52.414;9.784;2022-12-07T03:48:33;16.03;;;8.67;;
6251;SDS011;3159;52.414;9.784;2022-12-07T03:51:06;13.00;;;8.47;;
6251;SDS011;3159;52.414;9.784;2022-12-07T03:53:39;16.33;;;9.53;;
6251;SDS011;3159;52.414;9.784;2022-12-07T03:56:10;15.80;;;8.73;;
6251;SDS011;3159;52.414;9.784;2022-12-07T03:58:38;14.73;;;8.77;;
6251;SDS011;3159;52.414;9.784;2022-12-07T04:01:07;14.10;;;9.13;;
6251;SDS011;3159;52.414;9.784;2022-12-07T04:03:35;11.70;;;9.00;;
6251;SDS011;3159;52.414;9.784;2022-12-07T04:06:01;16.30;;;8.97;;
6251;SDS011;3159;52.414;9.784;2022-12-07T04:08:29;12.73;;;9.03;;
6251;SDS011;3159;52.414;9.784;2022-12-07T04:10:55;14.33;;;9.57;;
6251;SDS011;3159;52.414;9.784;2022-12-07T04:13:22;16.53;;;9.23;;
6251;SDS011;3159;52.414;9.784;2022-12-07T04:15:49;14.77;;;9.63;;
6251;SDS011;3159;52.414;9.784;2022-12-07T04:18:17;15.37;;;9.37;;
6251;SDS011;3159;52.414;9.784;2022-12-07T04:20:45;13.43;;;9.20;;
6251;SDS011;3159;52.414;9.784;2022-12-07T04:23:12;19.90;;;10.27;;
6251;SDS011;3159;52.414;9.784;2022-12-07T04:25:39;16.17;;;8.83;;
6251;SDS011;3159;52.414;9.784;2022-12-07T04:28:06;17.67;;;9.33;;
6251;SDS011;3159;52.414;9.784;2022-12-07T04:30:33;18.00;;;9.50;;
6251;SDS011;3159;52.414;9.784;2022-12-07T04:33:00;14.60;;;8.33;;
6251;SDS011;3159;52.414;9.784;2022-12-07T04:35:28;15.73;;;9.07;;
6251;SDS011;3159;52.414;9.784;2022-12-07T04:37:55;15.17;;;8.97;;
6251;SDS011;3159;52.414;9.784;2022-12-07T04:40:22;15.50;;;9.17;;
6251;SDS011;3159;52.414;9.784;2022-12-07T04:42:49;16.43;;;9.43;;
6251;SDS011;3159;52.414;9.784;2022-12-07T04:45:16;19.20;;;8.60;;
6251;SDS011;3159;52.414;9.784;2022-12-07T04:47:42;12.10;;;8.03;;
6251;SDS011;3159;52.414;9.784;2022-12-07T04:50:09;13.93;;;8.00;;
6251;SDS011;3159;52.414;9.784;2022-12-07T04:52:38;19.57;;;8.67;;
6251;SDS011;3159;52.414;9.784;2022-12-07T04:55:05;12.07;;;7.63;;
6251;SDS011;3159;52.414;9.784;2022-12-07T04:57:32;12.77;;;7.87;;
6251;SDS011;3159;52.414;9.784;2022-12-07T05:00:01;14.37;;;7.87;;
6251;SDS011;3159;52.414;9.784;2022-12-07T05:02:29;16.23;;;7.13;;
6251;SDS011;3159;52.414;9.784;2022-12-07T05:04:56;14.37;;;8.23;;
6251;SDS011;3159;52.414;9.784;2022-12-07T05:07:22;16.40;;;7.70;;
6251;SDS011;3159;52.414;9.784;2022-12-07T05:09:51;13.67;;;6.87;;
6251;SDS011;3159;52.414;9.784;2022-12-07T05:12:18;12.97;;;7.53;;
6251;SDS011;3159;52.414;9.784;2022-12-07T05:14:44;13.70;;;7.13;;
6251;SDS011;3159;52.414;9.784;2022-12-07T05:17:11;13.70;;;7.70;;
6251;SDS011;3159;52.414;9.784;2022-12-07T05:19:39;12.63;;;7.67;;
6251;SDS011;3159;52.414;9.784;2022-12-07T05:22:06;14.10;;;7.73;;
6251;SDS011;3159;52.414;9.784;2022-12-07T05:24:33;12.63;;;7.20;;
6251;SDS011;3159;52.414;9.784;2022-12-07T05:27:01;12.37;;;7.10;;
6251;SDS011;3159;52.414;9.784;2022-12-07T05:29:28;15.43;;;7.73;;
6251;SDS011;3159;52.414;9.784;2022-12-07T05:31:55;10.07;;;7.00;;
6251;SDS011;3159;52.414;9.784;2022-12-07T05:34:22;12.60;;;7.33;;
6251;SDS011;3159;52.414;9.784;2022-12-07T05:36:49;16.00;;;7.23;;
6251;SDS011;3159;52.414;9.784;2022-12-07T05:39:16;17.40;;;7.57;;
6251;SDS011;3159;52.414;9.784;2022-12-07T05:41:43;15.27;;;7.37;;
6251;SDS011;3159;52.414;9.784;2022-12-07T05:44:29;13.53;;;7.10;;
6251;SDS011;3159;52.414;9.784;2022-12-07T05:46:56;14.17;;;7.60;;
6251;SDS011;3159;52.414;9.784;2022-12-07T05:49:22;16.07;;;7.80;;
6251;SDS011;3159;52.414;9.784;2022-12-07T05:51:49;10.50;;;7.10;;
6251;SDS011;3159;52.414;9.784;2022-12-07T05:54:16;12.17;;;6.80;;
6251;SDS011;3159;52.414;9.784;2022-12-07T05:56:43;16.30;;;6.83;;
6251;SDS011;3159;52.414;9.784;2022-12-07T05:59:10;12.33;;;6.90;;
6251;SDS011;3159;52.414;9.784;2022-12-07T06:01:49;14.17;;;6.30;;
6251;SDS011;3159;52.414;9.784;2022-12-07T06:04:16;14.93;;;7.03;;
6251;SDS011;3159;52.414;9.784;2022-12-07T06:06:43;15.47;;;6.70;;
6251;SDS011;3159;52.414;9.784;2022-12-07T06:09:10;13.57;;;6.43;;
6251;SDS011;3159;52.414;9.784;2022-12-07T06:11:38;12.03;;;6.57;;
6251;SDS011;3159;52.414;9.784;2022-12-07T06:14:22;15.55;;;8.70;;
6251;SDS011;3159;52.414;9.784;2022-12-07T06:16:51;18.10;;;7.03;;
6251;SDS011;3159;52.414;9.784;2022-12-07T06:19:18;14.43;;;9.23;;
6251;SDS011;3159;52.414;9.784;2022-12-07T06:21:44;12.70;;;6.70;;
6251;SDS011;3159;52.414;9.784;2022-12-07T06:24:12;12.73;;;6.50;;
6251;SDS011;3159;52.414;9.784;2022-12-07T06:26:40;10.30;;;5.90;;
6251;SDS011;3159;52.414;9.784;2022-12-07T06:29:07;14.53;;;6.57;;
6251;SDS011;3159;52.414;9.784;2022-12-07T06:31:35;14.77;;;6.00;;
6251;SDS011;3159;52.414;9.784;2022-12-07T06:34:04;11.47;;;6.00;;
6251;SDS011;3159;52.414;9.784;2022-12-07T06:36:33;13.03;;;6.07;;
6251;SDS011;3159;52.414;9.784;2022-12-07T06:39:00;11.60;;;6.10;;
6251;SDS011;3159;52.414;9.784;2022-12-07T06:41:27;10.97;;;5.50;;
6251;SDS011;3159;52.414;9.784;2022-12-07T06:43:54;10.95;;;6.07;;
6251;SDS011;3159;52.414;9.784;2022-12-07T06:46:21;8.67;;;5.37;;
6251;SDS011;3159;52.414;9.784;2022-12-07T06:48:48;10.33;;;5.40;;
6251;SDS011;3159;52.414;9.784;2022-12-07T06:51:17;9.73;;;4.67;;
6251;SDS011;3159;52.414;9.784;2022-12-07T06:53:44;9.60;;;4.47;;
6251;SDS011;3159;52.414;9.784;2022-12-07T06:56:10;8.43;;;4.63;;
6251;SDS011;3159;52.414;9.784;2022-12-07T06:58:38;8.67;;;4.50;;
6251;SDS011;3159;52.414;9.784;2022-12-07T07:01:08;8.90;;;4.27;;
6251;SDS011;3159;52.414;9.784;2022-12-07T07:03:36;11.10;;;4.93;;
6251;SDS011;3159;52.414;9.784;2022-12-07T07:06:03;11.67;;;4.90;;
6251;SDS011;3159;52.414;9.784;2022-12-07T07:08:33;9.17;;;4.43;;
6251;SDS011;3159;52.414;9.784;2022-12-07T07:11:00;6.33;;;4.60;;
6251;SDS011;3159;52.414;9.784;2022-12-07T07:13:27;9.90;;;4.93;;
6251;SDS011;3159;52.414;9.784;2022-12-07T07:15:54;9.77;;;4.10;;
6251;SDS011;3159;52.414;9.784;2022-12-07T07:18:21;9.53;;;4.43;;
6251;SDS011;3159;52.414;9.784;2022-12-07T07:20:49;11.40;;;6.87;;
6251;SDS011;3159;52.414;9.784;2022-12-07T07:23:16;10.60;;;5.63;;
6251;SDS011;3159;52.414;9.784;2022-12-07T07:25:45;8.73;;;6.30;;
6251;SDS011;3159;52.414;9.784;2022-12-07T07:28:12;8.17;;;4.37;;
6251;SDS011;3159;52.414;9.784;2022-12-07T07:30:39;5.83;;;3.93;;
6251;SDS011;3159;52.414;9.784;2022-12-07T07:33:06;7.07;;;3.90;;
6251;SDS011;3159;52.414;9.784;2022-12-07T07:35:33;9.23;;;3.67;;
6251;SDS011;3159;52.414;9.784;2022-12-07T07:38:00;10.83;;;3.90;;
6251;SDS011;3159;52.414;9.784;2022-12-07T07:40:28;6.57;;;3.20;;
6251;SDS011;3159;52.414;9.784;2022-12-07T07:42:56;9.03;;;3.10;;
6251;SDS011;3159;52.414;9.784;2022-12-07T07:45:24;8.63;;;3.30;;
6251;SDS011;3159;52.414;9.784;2022-12-07T07:47:52;8.90;;;3.30;;
6251;SDS011;3159;52.414;9.784;2022-12-07T07:50:20;4.03;;;2.47;;
6251;SDS011;3159;52.414;9.784;2022-12-07T07:52:47;5.70;;;2.93;;
6251;SDS011;3159;52.414;9.784;2022-12-07T07:55:14;7.93;;;2.60;;
6251;SDS011;3159;52.414;9.784;2022-12-07T07:57:41;6.00;;;2.67;;
6251;SDS011;3159;52.414;9.784;2022-12-07T08:00:10;8.47;;;2.73;;
6251;SDS011;3159;52.414;9.784;2022-12-07T08:02:38;7.83;;;3.17;;
6251;SDS011;3159;52.414;9.784;2022-12-07T08:05:08;6.03;;;2.33;;
6251;SDS011;3159;52.414;9.784;2022-12-07T08:07:36;5.13;;;2.10;;
6251;SDS011;3159;52.414;9.784;2022-12-07T08:10:04;5.30;;;2.57;;
6251;SDS011;3159;52.414;9.784;2022-12-07T08:12:35;8.93;;;2.70;;
6251;SDS011;3159;52.414;9.784;2022-12-07T08:15:03;4.80;;;2.00;;
6251;SDS011;3159;52.414;9.784;2022-12-07T08:17:31;5.50;;;1.77;;
6251;SDS011;3159;52.414;9.784;2022-12-07T08:19:59;4.73;;;1.87;;
6251;SDS011;3159;52.414;9.784;2022-12-07T08:22:26;6.33;;;2.10;;
6251;SDS011;3159;52.414;9.784;2022-12-07T08:24:53;5.47;;;1.70;;
6251;SDS011;3159;52.414;9.784;2022-12-07T08:27:20;5.53;;;1.60;;
6251;SDS011;3159;52.414;9.784;2022-12-07T08:29:51;6.20;;;1.70;;
6251;SDS011;3159;52.414;9.784;2022-12-07T08:32:18;5.53;;;1.70;;
6251;SDS011;3159;52.414;9.784;2022-12-07T08:34:46;6.23;;;2.00;;
6251;SDS011;3159;52.414;9.784;2022-12-07T08:37:14;8.53;;;1.57;;
6251;SDS011;3159;52.414;9.784;2022-12-07T08:39:40;3.30;;;1.50;;
6251;SDS011;3159;52.414;9.784;2022-12-07T08:42:08;5.80;;;1.90;;
6251;SDS011;3159;52.414;9.784;2022-12-07T08:44:34;3.63;;;1.30;;
6251;SDS011;3159;52.414;9.784;2022-12-07T08:47:02;2.30;;;1.43;;
6251;SDS011;3159;52.414;9.784;2022-12-07T08:49:33;7.23;;;1.83;;
6251;SDS011;3159;52.414;9.784;2022-12-07T08:52:06;6.43;;;2.00;;
6251;SDS011;3159;52.414;9.784;2022-12-07T08:54:33;4.87;;;2.17;;
6251;SDS011;3159;52.414;9.784;2022-12-07T08:57:02;6.90;;;2.10;;
6251;SDS011;3159;52.414;9.784;2022-12-07T08:59:30;2.97;;;1.60;;
6251;SDS011;3159;52.414;9.784;2022-12-07T09:01:58;4.17;;;1.50;;
6251;SDS011;3159;52.414;9.784;2022-12-07T09:04:25;6.27;;;1.63;;
6251;SDS011;3159;52.414;9.784;2022-12-07T09:06:53;6.53;;;1.63;;
6251;SDS011;3159;52.414;9.784;2022-12-07T09:09:22;5.57;;;1.80;;
6251;SDS011;3159;52.414;9.784;2022-12-07T09:11:49;5.37;;;2.43;;
6251;SDS011;3159;52.414;9.784;2022-12-07T09:14:15;8.63;;;1.47;;
6251;SDS011;3159;52.414;9.784;2022-12-07T09:16:43;3.03;;;1.47;;
6251;SDS011;3159;52.414;9.784;2022-12-07T09:19:10;3.00;;;1.50;;
6251;SDS011;3159;52.414;9.784;2022-12-07T09:21:37;4.67;;;1.47;;
6251;SDS011;3159;52.414;9.784;2022-12-07T09:24:04;5.83;;;1.50;;
6251;SDS011;3159;52.414;9.784;2022-12-07T09:26:33;4.10;;;1.93;;
6251;SDS011;3159;52.414;9.784;2022-12-07T09:29:00;3.47;;;1.40;;
6251;SDS011;3159;52.414;9.784;2022-12-07T09:31:28;4.20;;;1.90;;
6251;SDS011;3159;52.414;9.784;2022-12-07T09:33:55;6.73;;;2.03;;
6251;SDS011;3159;52.414;9.784;2022-12-07T09:36:23;5.97;;;1.70;;
6251;SDS011;3159;52.414;9.784;2022-12-07T09:38:50;5.33;;;1.93;;
6251;SDS011;3159;52.414;9.784;2022-12-07T09:41:17;3.83;;;2.07;;
6251;SDS011;3159;52.414;9.784;2022-12-07T09:43:46;2.43;;;1.50;;
6251;SDS011;3159;52.414;9.784;2022-12-07T09:46:14;4.43;;;1.47;;
6251;SDS011;3159;52.414;9.784;2022-12-07T09:48:44;5.57;;;1.70;;
6251;SDS011;3159;52.414;9.784;2022-12-07T09:51:13;2.70;;;1.70;;
6251;SDS011;3159;52.414;9.784;2022-12-07T09:53:42;4.97;;;2.10;;
6251;SDS011;3159;52.414;9.784;2022-12-07T09:56:11;5.40;;;1.40;;
6251;SDS011;3159;52.414;9.784;2022-12-07T09:58:39;6.93;;;1.47;;
6251;SDS011;3159;52.414;9.784;2022-12-07T10:01:11;2.03;;;1.20;;
6251;SDS011;3159;52.414;9.784;2022-12-07T10:03:40;3.37;;;1.33;;
6251;SDS011;3159;52.414;9.784;2022-12-07T10:06:13;4.80;;;1.03;;
6251;SDS011;3159;52.414;9.784;2022-12-07T10:08:40;6.50;;;1.57;;
6251;SDS011;3159;52.414;9.784;2022-12-07T10:11:08;2.77;;;1.07;;
6251;SDS011;3159;52.414;9.784;2022-12-07T10:13:36;5.53;;;1.20;;
6251;SDS011;3159;52.414;9.784;2022-12-07T10:16:04;1.53;;;0.80;;
6251;SDS011;3159;52.414;9.784;2022-12-07T10:18:34;5.13;;;1.03;;
6251;SDS011;3159;52.414;9.784;2022-12-07T10:21:10;6.10;;;1.00;;
6251;SDS011;3159;52.414;9.784;2022-12-07T10:23:39;2.67;;;1.13;;
6251;SDS011;3159;52.414;9.784;2022-12-07T10:26:20;4.27;;;1.20;;
6251;SDS011;3159;52.414;9.784;2022-12-07T10:28:55;3.47;;;1.13;;
6251;SDS011;3159;52.414;9.784;2022-12-07T10:31:25;3.00;;;1.00;;
6251;SDS011;3159;52.414;9.784;2022-12-07T10:33:54;4.27;;;1.57;;
6251;SDS011;3159;52.414;9.784;2022-12-07T10:36:23;4.60;;;1.60;;
6251;SDS011;3159;52.414;9.784;2022-12-07T10:38:52;2.97;;;1.60;;
6251;SDS011;3159;52.414;9.784;2022-12-07T10:41:25;5.27;;;1.23;;
6251;SDS011;3159;52.414;9.784;2022-12-07T10:43:52;3.90;;;1.63;;
6251;SDS011;3159;52.414;9.784;2022-12-07T10:46:37;2.93;;;1.43;;
6251;SDS011;3159;52.414;9.784;2022-12-07T10:49:30;6.47;;;1.40;;
6251;SDS011;3159;52.414;9.784;2022-12-07T10:52:18;7.23;;;1.47;;
6251;SDS011;3159;52.414;9.784;2022-12-07T10:55:01;8.67;;;1.60;;
6251;SDS011;3159;52.414;9.784;2022-12-07T10:57:41;3.70;;;1.17;;
6251;SDS011;3159;52.414;9.784;2022-12-07T11:00:18;2.53;;;1.20;;
6251;SDS011;3159;52.414;9.784;2022-12-07T11:05:52;6.30;;;1.43;;
6251;SDS011;3159;52.414;9.784;2022-12-07T11:08:31;2.23;;;1.00;;
6251;SDS011;3159;52.414;9.784;2022-12-07T11:11:09;4.67;;;1.40;;
6251;SDS011;3159;52.414;9.784;2022-12-07T11:13:43;8.40;;;1.33;;
6251;SDS011;3159;52.414;9.784;2022-12-07T11:16:24;2.90;;;1.43;;
6251;SDS011;3159;52.414;9.784;2022-12-07T11:19:11;3.23;;;1.27;;
6251;SDS011;3159;52.414;9.784;2022-12-07T11:21:53;3.30;;;1.20;;
6251;SDS011;3159;52.414;9.784;2022-12-07T11:24:24;4.17;;;1.00;;
6251;SDS011;3159;52.414;9.784;2022-12-07T11:27:02;5.17;;;1.00;;
6251;SDS011;3159;52.414;9.784;2022-12-07T11:29:44;1.87;;;0.90;;
6251;SDS011;3159;52.414;9.784;2022-12-07T11:32:19;2.90;;;1.07;;
6251;SDS011;3159;52.414;9.784;2022-12-07T11:34:55;3.00;;;1.03;;
6251;SDS011;3159;52.414;9.784;2022-12-07T11:37:34;2.33;;;0.97;;
6251;SDS011;3159;52.414;9.784;2022-12-07T11:40:03;2.30;;;1.00;;
6251;SDS011;3159;52.414;9.784;2022-12-07T11:42:39;0.97;;;0.80;;
6251;SDS011;3159;52.414;9.784;2022-12-07T11:45:13;4.17;;;1.17;;
6251;SDS011;3159;52.414;9.784;2022-12-07T11:47:45;2.93;;;1.33;;
6251;SDS011;3159;52.414;9.784;2022-12-07T11:50:19;6.37;;;1.20;;
6251;SDS011;3159;52.414;9.784;2022-12-07T11:52:54;3.23;;;1.30;;
6251;SDS011;3159;52.414;9.784;2022-12-07T11:55:26;2.97;;;1.30;;
6251;SDS011;3159;52.414;9.784;2022-12-07T11:58:00;3.57;;;1.90;;
6251;SDS011;3159;52.414;9.784;2022-12-07T12:00:45;1.97;;;1.17;;
6251;SDS011;3159;52.414;9.784;2022-12-07T12:03:13;2.40;;;1.60;;
6251;SDS011;3159;52.414;9.784;2022-12-07T12:05:47;2.20;;;1.40;;
6251;SDS011;3159;52.414;9.784;2022-12-07T12:08:18;2.27;;;1.47;;
6251;SDS011;3159;52.414;9.784;2022-12-07T12:10:52;5.43;;;1.80;;
6251;SDS011;3159;52.414;9.784;2022-12-07T12:16:51;5.83;;;1.57;;
6251;SDS011;3159;52.414;9.784;2022-12-07T12:19:32;7.03;;;2.07;;
6251;SDS011;3159;52.414;9.784;2022-12-07T12:22:04;3.13;;;1.47;;
6251;SDS011;3159;52.414;9.784;2022-12-07T12:24:43;7.47;;;1.77;;
6251;SDS011;3159;52.414;9.784;2022-12-07T12:27:15;4.63;;;1.70;;
6251;SDS011;3159;52.414;9.784;2022-12-07T12:29:52;6.73;;;2.30;;
6251;SDS011;3159;52.414;9.784;2022-12-07T12:32:21;8.07;;;2.20;;
6251;SDS011;3159;52.414;9.784;2022-12-07T12:35:01;5.73;;;1.87;;
6251;SDS011;3159;52.414;9.784;2022-12-07T12:37:46;5.20;;;2.20;;
6251;SDS011;3159;52.414;9.784;2022-12-07T12:55:24;8.97;;;2.70;;
6251;SDS011;3159;52.414;9.784;2022-12-07T12:58:27;6.37;;;1.97;;
6251;SDS011;3159;52.414;9.784;2022-12-07T13:04:24;9.70;;;2.30;;
6251;SDS011;3159;52.414;9.784;2022-12-07T13:07:13;6.10;;;1.83;;
6251;SDS011;3159;52.414;9.784;2022-12-07T13:10:20;9.87;;;2.40;;
6251;SDS011;3159;52.414;9.784;2022-12-07T13:12:55;5.23;;;2.70;;
6251;SDS011;3159;52.414;9.784;2022-12-07T13:15:34;6.87;;;2.10;;
6251;SDS011;3159;52.414;9.784;2022-12-07T13:18:03;6.70;;;1.90;;
6251;SDS011;3159;52.414;9.784;2022-12-07T13:20:52;9.27;;;2.27;;
6251;SDS011;3159;52.414;9.784;2022-12-07T13:23:21;6.47;;;1.93;;
6251;SDS011;3159;52.414;9.784;2022-12-07T13:25:51;8.57;;;1.70;;
6251;SDS011;3159;52.414;9.784;2022-12-07T13:28:23;8.83;;;1.80;;
6251;SDS011;3159;52.414;9.784;2022-12-07T13:31:03;5.73;;;1.77;;
6251;SDS011;3159;52.414;9.784;2022-12-07T13:33:45;5.63;;;1.70;;
6251;SDS011;3159;52.414;9.784;2022-12-07T13:36:20;6.90;;;1.97;;
6251;SDS011;3159;52.414;9.784;2022-12-07T13:38:53;5.83;;;1.93;;
6251;SDS011;3159;52.414;9.784;2022-12-07T13:41:22;4.70;;;1.90;;
6251;SDS011;3159;52.414;9.784;2022-12-07T13:43:59;7.77;;;2.20;;
6251;SDS011;3159;52.414;9.784;2022-12-07T13:46:33;8.43;;;2.17;;
6251;SDS011;3159;52.414;9.784;2022-12-07T13:49:19;3.70;;;1.60;;
6251;SDS011;3159;52.414;9.784;2022-12-07T13:51:48;11.33;;;1.53;;
6251;SDS011;3159;52.414;9.784;2022-12-07T13:54:15;6.40;;;2.00;;
6251;SDS011;3159;52.414;9.784;2022-12-07T13:56:43;9.33;;;2.10;;
6251;SDS011;3159;52.414;9.784;2022-12-07T13:59:14;7.27;;;2.40;;
6251;SDS011;3159;52.414;9.784;2022-12-07T14:01:45;5.70;;;1.70;;
6251;SDS011;3159;52.414;9.784;2022-12-07T14:04:18;5.27;;;1.77;;
6251;SDS011;3159;52.414;9.784;2022-12-07T14:06:51;5.33;;;1.87;;
6251;SDS011;3159;52.414;9.784;2022-12-07T14:09:19;8.70;;;1.93;;
6251;SDS011;3159;52.414;9.784;2022-12-07T14:11:47;5.33;;;1.80;;
6251;SDS011;3159;52.414;9.784;2022-12-07T14:14:16;9.73;;;1.57;;
6251;SDS011;3159;52.414;9.784;2022-12-07T14:16:56;9.27;;;2.17;;
6251;SDS011;3159;52.414;9.784;2022-12-07T14:19:40;18.67;;;7.70;;
6251;SDS011;3159;52.414;9.784;2022-12-07T14:22:09;7.07;;;2.47;;
6251;SDS011;3159;52.414;9.784;2022-12-07T14:24:58;7.47;;;2.43;;
6251;SDS011;3159;52.414;9.784;2022-12-07T14:27:30;6.07;;;1.87;;
6251;SDS011;3159;52.414;9.784;2022-12-07T14:29:59;8.33;;;2.03;;
6251;SDS011;3159;52.414;9.784;2022-12-07T14:32:28;8.83;;;1.77;;
6251;SDS011;3159;52.414;9.784;2022-12-07T14:34:57;9.13;;;1.97;;
6251;SDS011;3159;52.414;9.784;2022-12-07T14:37:27;5.27;;;1.50;;
6251;SDS011;3159;52.414;9.784;2022-12-07T14:39:55;6.07;;;2.00;;
6251;SDS011;3159;52.414;9.784;2022-12-07T14:42:23;5.27;;;1.97;;
6251;SDS011;3159;52.414;9.784;2022-12-07T14:44:53;4.10;;;1.77;;
6251;SDS011;3159;52.414;9.784;2022-12-07T14:47:20;7.37;;;1.70;;
6251;SDS011;3159;52.414;9.784;2022-12-07T14:49:48;6.43;;;2.03;;
6251;SDS011;3159;52.414;9.784;2022-12-07T14:52:16;5.40;;;2.07;;
6251;SDS011;3159;52.414;9.784;2022-12-07T14:54:45;6.30;;;1.90;;
6251;SDS011;3159;52.414;9.784;2022-12-07T14:57:12;6.50;;;1.80;;
6251;SDS011;3159;52.414;9.784;2022-12-07T14:59:39;6.23;;;2.03;;
6251;SDS011;3159;52.414;9.784;2022-12-07T15:02:06;8.13;;;2.23;;
6251;SDS011;3159;52.414;9.784;2022-12-07T15:04:36;5.17;;;2.10;;
6251;SDS011;3159;52.414;9.784;2022-12-07T15:07:05;8.30;;;2.10;;
6251;SDS011;3159;52.414;9.784;2022-12-07T15:09:36;7.07;;;2.00;;
6251;SDS011;3159;52.414;9.784;2022-12-07T15:12:03;8.50;;;2.20;;
6251;SDS011;3159;52.414;9.784;2022-12-07T15:14:30;7.03;;;2.20;;
6251;SDS011;3159;52.414;9.784;2022-12-07T15:16:57;8.60;;;2.60;;
6251;SDS011;3159;52.414;9.784;2022-12-07T15:19:24;6.23;;;2.10;;
6251;SDS011;3159;52.414;9.784;2022-12-07T15:21:52;3.57;;;2.17;;
6251;SDS011;3159;52.414;9.784;2022-12-07T15:24:20;4.70;;;2.13;;
6251;SDS011;3159;52.414;9.784;2022-12-07T15:26:49;6.60;;;2.10;;
6251;SDS011;3159;52.414;9.784;2022-12-07T15:29:16;6.00;;;2.40;;
6251;SDS011;3159;52.414;9.784;2022-12-07T15:31:43;6.27;;;2.30;;
6251;SDS011;3159;52.414;9.784;2022-12-07T15:34:10;5.47;;;2.27;;
6251;SDS011;3159;52.414;9.784;2022-12-07T15:36:37;5.83;;;2.97;;
6251;SDS011;3159;52.414;9.784;2022-12-07T15:39:04;6.27;;;2.30;;
6251;SDS011;3159;52.414;9.784;2022-12-07T15:41:32;5.33;;;3.23;;
6251;SDS011;3159;52.414;9.784;2022-12-07T15:44:00;9.20;;;2.50;;
6251;SDS011;3159;52.414;9.784;2022-12-07T15:46:45;3.73;;;2.27;;
6251;SDS011;3159;52.414;9.784;2022-12-07T15:49:13;6.43;;;2.97;;
6251;SDS011;3159;52.414;9.784;2022-12-07T15:51:41;7.07;;;3.33;;
6251;SDS011;3159;52.414;9.784;2022-12-07T15:54:11;9.10;;;4.10;;